TimeEST,TemperatureF,Dew PointF,Humidity,Sea Level PressureIn,VisibilityMPH,Wind Direction,Wind SpeedMPH,Gust SpeedMPH,PrecipitationIn,Events,Conditions,WindDirDegrees,DateUTC
12:15 AM,3.2,-2.2,78,29.88,10.0,WSW,12.7,18.4,N/A,,Clear,240,2013-12-10 05:15:00
12:35 AM,3.2,-2.2,78,29.88,10.0,WSW,9.2,-,N/A,,Clear,240,2013-12-10 05:35:00
12:55 AM,1.4,-2.2,85,29.88,10.0,SW,9.2,16.1,N/A,,Clear,230,2013-12-10 05:55:00
1:15 AM,1.4,-2.2,85,29.88,10.0,WSW,9.2,-,N/A,,Clear,240,2013-12-10 06:15:00
1:35 AM,1.4,-2.2,85,29.88,10.0,SW,8.1,-,N/A,,Clear,230,2013-12-10 06:35:00
1:55 AM,-0.4,-4.0,85,29.89,10.0,WSW,9.2,-,N/A,,Clear,240,2013-12-10 06:55:00
2:15 AM,-0.4,-4.0,85,29.89,10.0,WSW,11.5,16.1,N/A,,Clear,240,2013-12-10 07:15:00
2:35 AM,-0.4,-4.0,85,29.90,10.0,WSW,11.5,-,N/A,,Clear,240,2013-12-10 07:35:00
2:55 AM,-0.4,-5.8,78,29.90,10.0,WSW,11.5,-,N/A,,Clear,240,2013-12-10 07:55:00
3:15 AM,-2.2,-5.8,85,29.90,10.0,WSW,10.4,17.3,N/A,,Clear,250,2013-12-10 08:15:00
3:35 AM,-2.2,-5.8,85,29.90,10.0,SW,8.1,-,N/A,,Clear,230,2013-12-10 08:35:00
3:55 AM,-2.2,-5.8,85,29.91,10.0,SW,6.9,-,N/A,,Clear,220,2013-12-10 08:55:00
4:15 AM,-2.2,-5.8,85,29.91,10.0,SW,5.8,-,N/A,,Clear,230,2013-12-10 09:15:00
4:35 AM,-2.2,-5.8,85,29.90,10.0,SW,5.8,-,N/A,,Clear,220,2013-12-10 09:35:00
4:55 AM,-2.2,-5.8,85,29.90,10.0,SSW,5.8,-,N/A,,Clear,210,2013-12-10 09:55:00
5:15 AM,-4.0,-5.8,92,29.90,10.0,SSW,6.9,-,N/A,,Partly Cloudy,210,2013-12-10 10:15:00
5:35 AM,-4.0,-7.6,85,29.90,10.0,SW,9.2,-,N/A,,Partly Cloudy,230,2013-12-10 10:35:00
5:55 AM,-4.0,-7.6,85,29.89,10.0,SW,6.9,-,N/A,,Scattered Clouds,230,2013-12-10 10:55:00
6:15 AM,-4.0,-7.6,85,29.88,10.0,WSW,6.9,-,N/A,,Partly Cloudy,240,2013-12-10 11:15:00
6:35 AM,-5.8,-7.6,92,29.87,10.0,West,6.9,-,N/A,,Clear,260,2013-12-10 11:35:00
6:55 AM,-4.0,-7.6,85,29.87,10.0,West,6.9,-,N/A,,Partly Cloudy,270,2013-12-10 11:55:00
7:15 AM,-2.2,-5.8,85,29.86,10.0,West,5.8,-,N/A,,Mostly Cloudy,270,2013-12-10 12:15:00
7:35 AM,-2.2,-5.8,85,29.86,10.0,West,5.8,-,N/A,,Overcast,260,2013-12-10 12:35:00
7:55 AM,-2.2,-5.8,85,29.85,10.0,West,6.9,-,N/A,,Overcast,270,2013-12-10 12:55:00
8:15 AM,-2.2,-5.8,85,29.85,10.0,West,5.8,-,N/A,,Overcast,270,2013-12-10 13:15:00
8:35 AM,-2.2,-5.8,85,29.84,10.0,West,5.8,-,N/A,,Scattered Clouds,260,2013-12-10 13:35:00
8:55 AM,-2.2,-5.8,85,29.84,10.0,West,5.8,-,N/A,,Clear,280,2013-12-10 13:55:00
9:15 AM,-2.2,-5.8,85,29.83,9.0,West,5.8,-,N/A,,Mostly Cloudy,260,2013-12-10 14:15:00
9:35 AM,-0.4,-5.8,78,29.83,10.0,WSW,4.6,-,N/A,,Overcast,250,2013-12-10 14:35:00
9:55 AM,-0.4,-5.8,78,29.83,10.0,West,3.5,-,N/A,,Overcast,260,2013-12-10 14:55:00
10:15 AM,1.4,-5.8,72,29.83,10.0,West,3.5,-,N/A,,Overcast,270,2013-12-10 15:15:00
10:35 AM,1.4,-2.2,85,29.82,10.0,WSW,5.8,-,N/A,,Overcast,240,2013-12-10 15:35:00
10:55 AM,3.2,-2.2,78,29.82,10.0,SW,3.5,-,N/A,,Overcast,220,2013-12-10 15:55:00
11:15 AM,5.0,-0.4,78,29.81,9.0,Calm,Calm,-,N/A,,Overcast,0,2013-12-10 16:15:00
11:35 AM,5.0,-0.4,78,29.80,7.0,SSE,5.8,-,N/A,,Overcast,160,2013-12-10 16:35:00
11:55 AM,6.8,1.4,79,29.79,4.0,Calm,Calm,-,N/A,,Overcast,0,2013-12-10 16:55:00
12:15 PM,8.6,3.2,79,29.78,9.0,Calm,Calm,-,N/A,,Overcast,0,2013-12-10 17:15:00
12:35 PM,10.4,3.2,73,29.76,1.0,Calm,Calm,-,N/A,,Overcast,0,2013-12-10 17:35:00
12:55 PM,12.2,6.8,79,29.76,2.0,Calm,Calm,-,N/A,,Overcast,0,2013-12-10 17:55:00
1:15 PM,14.0,6.8,73,29.75,10.0,Calm,Calm,-,N/A,,Overcast,0,2013-12-10 18:15:00
1:35 PM,15.8,8.6,73,29.74,7.0,Calm,Calm,-,N/A,,Mostly Cloudy,0,2013-12-10 18:35:00
1:55 PM,17.6,8.6,68,29.74,10.0,Calm,Calm,-,N/A,,Partly Cloudy,0,2013-12-10 18:55:00
2:15 PM,17.6,10.4,73,29.73,10.0,Calm,Calm,-,N/A,,Mostly Cloudy,0,2013-12-10 19:15:00
2:35 PM,15.8,6.8,68,29.73,10.0,Calm,Calm,-,N/A,,Overcast,0,2013-12-10 19:35:00
2:55 PM,15.8,6.8,68,29.74,4.0,Calm,Calm,-,N/A,,Mostly Cloudy,0,2013-12-10 19:55:00
3:15 PM,14.0,6.8,73,29.74,5.0,Calm,Calm,-,N/A,,Mostly Cloudy,0,2013-12-10 20:15:00
3:35 PM,12.2,8.6,85,29.74,10.0,NW,3.5,-,N/A,,Overcast,310,2013-12-10 20:35:00
3:55 PM,12.2,8.6,85,29.75,7.0,West,3.5,-,N/A,,Mostly Cloudy,260,2013-12-10 20:55:00
4:15 PM,12.2,8.6,85,29.76,3.0,West,5.8,-,N/A,,Overcast,270,2013-12-10 21:15:00
4:35 PM,12.2,8.6,85,29.78,1.8,WSW,5.8,-,N/A,,Overcast,250,2013-12-10 21:35:00
4:55 PM,10.4,8.6,92,29.79,10.0,WSW,4.6,-,N/A,,Overcast,250,2013-12-10 21:55:00
5:15 PM,10.4,8.6,92,29.80,10.0,WSW,5.8,-,N/A,,Overcast,240,2013-12-10 22:15:00
5:35 PM,8.6,8.6,100,29.80,10.0,SW,4.6,-,N/A,,Scattered Clouds,230,2013-12-10 22:35:00
5:55 PM,8.6,6.8,92,29.79,10.0,SW,4.6,-,N/A,,Clear,230,2013-12-10 22:55:00
6:15 PM,8.6,6.8,92,29.81,10.0,WSW,6.9,-,N/A,,Clear,240,2013-12-10 23:15:00
6:35 PM,6.8,6.8,100,29.82,10.0,SW,6.9,-,N/A,,Clear,220,2013-12-10 23:35:00
6:55 PM,6.8,5.0,92,29.82,10.0,WSW,6.9,-,N/A,,Clear,240,2013-12-10 23:55:00
7:15 PM,6.8,5.0,92,29.83,10.0,WSW,8.1,-,N/A,,Scattered Clouds,240,2013-12-11 00:15:00
7:35 PM,6.8,5.0,92,29.84,10.0,WSW,8.1,-,N/A,,Overcast,240,2013-12-11 00:35:00
7:55 PM,8.6,6.8,92,29.84,10.0,WSW,12.7,19.6,N/A,,Overcast,240,2013-12-11 00:55:00
8:15 PM,8.6,5.0,85,29.84,10.0,WSW,15.0,21.9,N/A,,Overcast,250,2013-12-11 01:15:00
8:35 PM,10.4,5.0,79,29.86,10.0,WSW,12.7,20.7,N/A,,Overcast,250,2013-12-11 01:35:00
8:55 PM,10.4,5.0,79,29.86,10.0,WSW,16.1,24.2,N/A,,Overcast,250,2013-12-11 01:55:00
9:15 PM,10.4,3.2,73,29.87,10.0,WSW,13.8,24.2,N/A,,Overcast,250,2013-12-11 02:15:00
9:35 PM,10.4,3.2,73,29.87,10.0,WSW,12.7,25.3,N/A,,Overcast,250,2013-12-11 02:35:00
9:55 PM,10.4,3.2,73,29.87,10.0,WSW,11.5,19.6,N/A,,Overcast,250,2013-12-11 02:55:00
10:15 PM,8.6,3.2,79,29.88,10.0,WSW,10.4,18.4,N/A,,Mostly Cloudy,250,2013-12-11 03:15:00
10:35 PM,8.6,3.2,79,29.89,10.0,WSW,10.4,19.6,N/A,,Partly Cloudy,250,2013-12-11 03:35:00
10:55 PM,6.8,1.4,79,29.89,10.0,WSW,9.2,17.3,N/A,,Partly Cloudy,240,2013-12-11 03:55:00
11:15 PM,6.8,1.4,79,29.91,10.0,WSW,12.7,17.3,N/A,,Mostly Cloudy,250,2013-12-11 04:15:00
11:35 PM,6.8,1.4,79,29.92,10.0,WSW,9.2,17.3,N/A,,Scattered Clouds,240,2013-12-11 04:35:00
11:55 PM,6.8,1.4,79,29.93,10.0,WSW,12.7,19.6,N/A,,Clear,250,2013-12-11 04:55:00